createdAt,value
2022-09-01T00:00:52.608Z,365.91781
2022-09-01T00:05:54.254Z,354.66667
2022-09-01T00:10:56.122Z,302.13953
2022-09-01T00:15:57.979Z,271.65957
2022-09-01T00:20:59.947Z,255.11111
2022-09-01T00:26:02.031Z,243.02913
2022-09-01T00:31:03.727Z,241.58454
2022-09-01T00:36:05.543Z,240.15385
2022-09-01T00:41:07.749Z,230.51163
2022-09-01T00:46:09.559Z,219
2022-09-01T00:51:12.013Z,219
2022-09-01T00:56:14.104Z,222.73303
2022-09-01T01:01:16.140Z,233.20188
2022-09-01T01:06:18.054Z,253.54774
2022-09-01T01:11:20.832Z,259.89744
2022-09-01T01:16:22.330Z,271.65957
2022-09-01T01:21:24.107Z,268.21053
2022-09-01T01:26:26.027Z,250.46766
2022-09-01T01:31:27.810Z,259.89744
2022-09-01T01:36:29.239Z,268.21053
2022-09-01T01:41:31.071Z,250.46766
2022-09-01T01:46:32.899Z,244.4878
2022-09-01T01:51:34.566Z,225.27854
2022-09-01T01:56:36.485Z,216.56637
2022-09-01T02:01:38.290Z,211.82609
2022-09-01T02:06:40.187Z,233.20188
2022-09-01T02:11:42.952Z,234.56604
2022-09-01T02:16:44.933Z,286.22222
2022-09-01T02:21:46.436Z,263.17098
2022-09-01T02:26:48.481Z,292.0226
2022-09-01T02:31:50.004Z,308.49704
2022-09-01T02:36:51.615Z,290.06742
2022-09-01T02:41:53.721Z,304.23392
2022-09-01T02:46:55.234Z,294
2022-09-01T02:51:57.585Z,261.52577
2022-09-01T02:56:59.564Z,252
2022-09-01T03:02:01.484Z,250.46766
2022-09-01T03:07:03.201Z,256.69036
2022-09-01T03:12:05.698Z,280.61202
2022-09-01T03:17:07.529Z,284.33149
2022-09-01T03:22:08.981Z,275.1828
2022-09-01T03:27:10.866Z,269.92593
2022-09-01T03:32:12.588Z,264.83333
2022-09-01T03:37:14.565Z,263.17098
2022-09-01T03:42:16.359Z,282.46154
2022-09-01T03:47:18.298Z,271.65957
2022-09-01T03:52:20.150Z,275.1828
2022-09-01T03:57:21.796Z,278.78261
2022-09-01T04:02:23.307Z,282.46154
2022-09-01T04:07:26.946Z,268.21053
2022-09-01T04:12:29.027Z,261.52577
2022-09-01T04:17:30.772Z,263.17098
2022-09-01T04:22:32.894Z,217.77778
2022-09-01T04:27:34.765Z,230.51163
2022-09-01T04:32:36.822Z,202.82353
2022-09-01T04:37:38.946Z,220.23318
2022-09-01T04:42:41.170Z,225.27854
2022-09-01T04:47:43.389Z,207.24786
2022-09-01T04:52:45.186Z,205.01695
2022-09-01T04:57:47.023Z,195.42857
2022-09-01T05:02:48.778Z,205.01695
2022-09-01T05:07:55.286Z,209.51724
2022-09-01T05:12:57.535Z,226.56881
2022-09-01T05:17:59.344Z,231.85047
2022-09-01T05:23:01.811Z,234.56604
2022-09-01T05:28:03.818Z,250.46766
2022-09-01T05:33:05.527Z,247.44828
2022-09-01T05:38:07.479Z,237.33333
2022-09-01T05:43:09.843Z,252
2022-09-01T05:48:11.804Z,269.92593
2022-09-01T05:53:13.575Z,271.65957
2022-09-01T05:58:16.075Z,258.28571
2022-09-01T06:03:17.825Z,252
2022-09-01T06:08:19.908Z,253.54774
2022-09-01T06:13:22.267Z,271.65957
2022-09-01T06:18:29.225Z,240.15385
2022-09-01T06:23:30.682Z,238.73684
2022-09-01T06:28:32.529Z,215.36564
2022-09-01T06:33:33.941Z,220.23318
2022-09-01T06:38:35.727Z,233.20188
2022-09-01T06:43:37.911Z,250.46766
2022-09-01T06:48:39.780Z,269.92593
2022-09-01T06:53:41.950Z,256.69036
2022-09-01T06:58:43.880Z,292.0226
2022-09-01T07:03:45.896Z,264.83333
2022-09-01T07:14:20.356Z,261.52577
2022-09-01T07:19:22.413Z,292.0226
2022-09-01T07:24:29.407Z,253.54774
2022-09-01T07:29:33.269Z,252
2022-09-01T07:34:39.058Z,282.46154
2022-09-01T07:39:48.606Z,266.51309
2022-09-01T07:44:51.597Z,271.65957
2022-09-01T07:50:24.143Z,319.60976
2022-09-01T07:55:26.582Z,338.87179
2022-09-01T08:00:31.134Z,344
2022-09-01T08:05:33.867Z,363.04762
2022-09-01T08:10:36.882Z,410.66667
2022-09-01T08:15:41.375Z,393.63504
2022-09-01T08:21:08.431Z,400.2963
2022-09-01T08:26:10.643Z,444.81301
2022-09-01T08:31:12.889Z,440.77419
2022-09-01T08:36:14.856Z,432.88889
2022-09-01T08:41:16.984Z,457.33333
2022-09-01T08:46:19.420Z,536.30769
2022-09-01T08:51:21.395Z,479.65217
2022-09-01T08:56:23.464Z,498.95495
2022-09-01T09:01:24.999Z,592.42105
2022-09-01T09:06:26.483Z,606.36559
2022-09-01T09:11:28.057Z,677.33333
2022-09-01T09:16:30.182Z,733.74359
2022-09-01T09:21:31.788Z,733.74359
2022-09-01T09:26:42.664Z,849.88235
2022-09-01T09:31:45.882Z,776.43243
2022-09-01T09:36:54.516Z,787.83562
2022-09-01T09:41:57.792Z,953.83607
2022-09-01T09:47:00.699Z,1312.88889
2022-09-01T09:52:02.533Z,1024.70175
2022-09-01T09:57:04.860Z,1084.74074
2022-09-01T10:02:06.717Z,1254.6383
2022-09-01T10:07:08.658Z,1283.13043
2022-09-01T10:12:10.623Z,1176
2022-09-01T10:17:13.203Z,1254.6383
2022-09-01T10:22:16.909Z,1176
2022-09-01T10:27:18.793Z,1151.84314
2022-09-01T10:32:35.063Z,1344
2022-09-01T10:37:39.156Z,1201.14286
2022-09-01T10:42:45.323Z,1106.26415
2022-09-01T10:47:48.112Z,1376.55814
2022-09-01T10:52:51.239Z,1344
2022-09-01T10:57:53.390Z,1565.05263
2022-09-01T11:02:55.262Z,1446.43902
2022-09-01T11:08:01.303Z,1283.13043
2022-09-01T11:13:03.897Z,1655.11111
2022-09-01T11:18:06.847Z,1704
2022-09-01T11:23:08.312Z,1704
2022-09-01T11:28:10.654Z,1869
2022-09-01T11:33:12.265Z,2068.13793
2022-09-01T11:38:13.934Z,2510.66667
2022-09-01T11:43:16.582Z,3186.10526
2022-09-01T11:48:18.962Z,2877.33333
2022-09-01T11:53:20.520Z,2877.33333
2022-09-01T11:58:22.346Z,3024
2022-09-01T12:03:24.398Z,3024
2022-09-01T12:08:26.640Z,3794
2022-09-01T12:13:28.134Z,3794
2022-09-01T12:18:30.166Z,3794
2022-09-01T12:23:31.708Z,4682.46154
2022-09-01T12:28:33.280Z,5077.33333
2022-09-01T12:33:35.312Z,4682.46154
2022-09-01T12:38:37.265Z,6104
2022-09-01T12:43:38.727Z,6788.44444
2022-09-01T12:48:40.435Z,10210.66667
2022-09-01T12:53:42.588Z,10210.66667
2022-09-01T12:58:44.169Z,12264
2022-09-01T13:03:45.752Z,7644
2022-09-01T13:08:47.351Z,10210.66667
2022-09-01T13:13:48.791Z,12264
2022-09-01T13:19:11.802Z,20477.33333
2022-09-01T13:24:14.756Z,12264
2022-09-01T13:29:16.778Z,15344
2022-09-01T13:34:18.667Z,12264
2022-09-01T13:39:25.462Z,10210.66667
2022-09-01T13:44:27.065Z,6104
2022-09-01T13:50:06.100Z,6788.44444
2022-09-01T13:55:09.503Z,5544
2022-09-01T14:00:11.619Z,5544
2022-09-01T14:05:13.449Z,7644
2022-09-01T14:10:15.212Z,7644
2022-09-01T14:15:18.065Z,12264
2022-09-01T14:20:22.827Z,6788.44444
2022-09-01T14:25:24.786Z,8744
2022-09-01T14:30:31.011Z,6104
2022-09-01T14:35:33.662Z,5544
2022-09-01T14:40:35.910Z,4682.46154
2022-09-01T14:45:37.453Z,6788.44444
2022-09-01T14:50:39.843Z,6788.44444
2022-09-01T14:55:44.133Z,6104
2022-09-01T15:00:46.090Z,6104
2022-09-01T15:05:48.019Z,5544
2022-09-01T15:10:49.909Z,6788.44444
2022-09-01T15:15:51.843Z,3567.52941
2022-09-01T15:20:53.553Z,1608.86486
2022-09-01T15:25:55.226Z,2313.23077
2022-09-01T15:30:56.996Z,765.33333
2022-09-01T15:35:58.825Z,849.88235
2022-09-01T15:41:00.635Z,776.43243
2022-09-01T15:46:02.477Z,592.42105
2022-09-01T15:51:04.596Z,849.88235
2022-09-01T15:56:06.291Z,714
2022-09-01T16:01:08.393Z,572.57143
2022-09-01T16:06:10.479Z,714
2022-09-01T16:11:12.282Z,660.27907
2022-09-01T16:16:14.332Z,644
2022-09-01T16:21:17.074Z,585.66667
2022-09-01T16:26:18.863Z,475.03448
2022-09-01T16:31:20.696Z,457.33333
2022-09-01T16:36:22.224Z,282.46154
2022-09-01T16:41:23.901Z,224
2022-09-01T16:46:25.911Z,191.38956
2022-09-01T16:51:28.218Z,157.14879
2022-09-01T16:56:29.793Z,137.71069
2022-09-01T17:01:31.309Z,118.50425
2022-09-01T17:06:32.969Z,108.70588
2022-09-01T17:11:34.512Z,115.58774
2022-09-01T17:16:36.019Z,114.16575
2022-09-01T17:21:37.862Z,157.88889
2022-09-01T17:26:39.454Z,160.90141
2022-09-01T17:31:41.274Z,282.46154
2022-09-01T17:36:46.823Z,212.99563
2022-09-01T17:41:48.661Z,178.22053
2022-09-01T17:46:50.449Z,256.69036
2022-09-01T17:51:52.290Z,263.17098
2022-09-01T17:56:53.911Z,282.46154
2022-09-01T18:01:55.524Z,280.61202
2022-09-01T18:06:57.308Z,324.24691
2022-09-01T18:11:58.849Z,308.49704
2022-09-01T18:17:00.603Z,264.83333
2022-09-01T18:22:03.432Z,326.6087
2022-09-01T18:27:04.859Z,421.51938
2022-09-01T18:32:06.599Z,613.56522
2022-09-01T18:37:08.143Z,776.43243
2022-09-01T18:42:09.653Z,686.16867
2022-09-01T18:47:13.684Z,714
2022-09-01T18:52:16.001Z,744
2022-09-01T18:57:17.516Z,714
2022-09-01T19:02:19.699Z,644
2022-09-01T19:07:21.772Z,599.31915
2022-09-01T19:12:23.597Z,636.13483
2022-09-01T19:17:25.188Z,579.05155
2022-09-01T19:22:27.074Z,448.91803
2022-09-01T19:27:28.543Z,387.16547
2022-09-01T19:32:30.272Z,351.94702
2022-09-01T19:37:31.950Z,276.97297
2022-09-01T19:42:33.456Z,288.13408
2022-09-01T19:47:35.148Z,312.86228
2022-09-01T19:52:37.191Z,298.02299
2022-09-01T19:57:38.644Z,286.22222
2022-09-01T20:02:40.393Z,282.46154
2022-09-01T20:07:42.319Z,288.13408
2022-09-01T20:12:44.357Z,296
2022-09-01T20:17:46.089Z,326.6087
2022-09-01T20:22:48.059Z,189.41833
2022-09-01T20:27:49.816Z,396.94118
2022-09-01T20:32:51.729Z,390.37681
2022-09-01T20:37:53.785Z,263.17098
2022-09-01T20:42:55.651Z,261.52577
2022-09-01T20:47:58.023Z,275.1828
2022-09-01T20:53:00.793Z,284.33149
2022-09-01T20:58:02.336Z,282.46154
2022-09-01T21:03:04.324Z,273.41176
2022-09-01T21:08:06.402Z,298.02299
2022-09-01T21:13:08.112Z,302.13953
2022-09-01T21:18:09.974Z,292.0226
2022-09-01T21:23:12.615Z,268.21053
2022-09-01T21:28:14.197Z,298.02299
2022-09-01T21:33:15.951Z,273.41176
2022-09-01T21:38:17.821Z,290.06742
2022-09-01T21:43:19.773Z,290.06742
2022-09-01T21:48:21.645Z,256.69036
2022-09-01T21:53:24.691Z,255.11111
2022-09-01T21:58:26.657Z,290.06742
2022-09-01T22:03:28.124Z,294
2022-09-01T22:08:29.975Z,282.46154
2022-09-01T22:13:31.595Z,326.6087
2022-09-01T22:18:33.328Z,269.92593
2022-09-01T22:23:35.187Z,241.58454
2022-09-01T22:28:37.026Z,222.73303
2022-09-01T22:33:38.734Z,208.37768
2022-09-01T22:38:40.643Z,209.51724
2022-09-01T22:43:42.127Z,199.60166
2022-09-01T22:48:43.847Z,192.3871
2022-09-01T22:53:45.882Z,184.625
2022-09-01T22:58:48.227Z,174.71161
2022-09-01T23:03:49.993Z,179.1145
2022-09-01T23:08:54.115Z,173.85075
2022-09-01T23:13:55.770Z,168
2022-09-01T23:18:58.176Z,173.85075
2022-09-01T23:24:00.271Z,179.1145
2022-09-01T23:29:02.141Z,181.83784
2022-09-01T23:34:03.987Z,180.92308
2022-09-01T23:39:05.788Z,227.87097
2022-09-01T23:44:07.558Z,219
2022-09-01T23:49:09.369Z,336.35669
2022-09-01T23:54:11.388Z,380.87943
2022-09-01T23:59:13.369Z,390.37681
